sensor_id;sensor_type;location;lat;lon;timestamp;pressure;altitude;pressure_sealevel;temperature;humidity
21300;BME280;10809;49.476;11.016;2022-12-29T00:02:20;97911.97;;;5.54;65.48
21300;BME280;10809;49.476;11.016;2022-12-29T00:04:51;97902.34;;;5.55;65.44
21300;BME280;10809;49.476;11.016;2022-12-29T00:07:22;97901.41;;;5.56;65.39
21300;BME280;10809;49.476;11.016;2022-12-29T00:09:52;97905.72;;;5.57;65.52
21300;BME280;10809;49.476;11.016;2022-12-29T00:12:23;97907.47;;;5.58;65.33
21300;BME280;10809;49.476;11.016;2022-12-29T00:14:54;97910.84;;;5.60;65.17
21300;BME280;10809;49.476;11.016;2022-12-29T00:17:43;97896.84;;;5.61;65.15
21300;BME280;10809;49.476;11.016;2022-12-29T00:20:14;97910.78;;;5.61;65.10
21300;BME280;10809;49.476;11.016;2022-12-29T00:23:03;97895.91;;;5.62;65.15
21300;BME280;10809;49.476;11.016;2022-12-29T00:25:52;97891.50;;;5.62;65.26
21300;BME280;10809;49.476;11.016;2022-12-29T00:28:55;97890.59;;;5.63;65.31
21300;BME280;10809;49.476;11.016;2022-12-29T00:31:44;97879.22;;;5.63;65.16
21300;BME280;10809;49.476;11.016;2022-12-29T00:34:34;97885.34;;;5.63;65.23
21300;BME280;10809;49.476;11.016;2022-12-29T00:37:30;97871.34;;;5.63;65.09
21300;BME280;10809;49.476;11.016;2022-12-29T00:40:20;97869.56;;;5.63;65.29
21300;BME280;10809;49.476;11.016;2022-12-29T00:43:09;97870.44;;;5.64;65.16
21300;BME280;10809;49.476;11.016;2022-12-29T00:45:58;97866.88;;;5.65;65.08
21300;BME280;10809;49.476;11.016;2022-12-29T00:48:28;97866.88;;;5.65;65.00
21300;BME280;10809;49.476;11.016;2022-12-29T00:51:17;97866.81;;;5.66;65.05
21300;BME280;10809;49.476;11.016;2022-12-29T00:53:47;97867.69;;;5.67;65.03
21300;BME280;10809;49.476;11.016;2022-12-29T00:56:18;97860.56;;;5.69;65.11
21300;BME280;10809;49.476;11.016;2022-12-29T00:58:48;97864.00;;;5.71;64.98
21300;BME280;10809;49.476;11.016;2022-12-29T01:01:19;97863.06;;;5.72;65.33
21300;BME280;10809;49.476;11.016;2022-12-29T01:03:49;97868.31;;;5.72;64.87
21300;BME280;10809;49.476;11.016;2022-12-29T01:06:20;97867.41;;;5.73;65.16
21300;BME280;10809;49.476;11.016;2022-12-29T01:08:51;97863.78;;;5.75;65.05
21300;BME280;10809;49.476;11.016;2022-12-29T01:11:41;97869.91;;;5.76;65.02
21300;BME280;10809;49.476;11.016;2022-12-29T01:14:12;97865.44;;;5.78;65.13
21300;BME280;10809;49.476;11.016;2022-12-29T01:16:42;97868.84;;;5.80;65.17
21300;BME280;10809;49.476;11.016;2022-12-29T01:19:14;97860.06;;;5.81;64.90
21300;BME280;10809;49.476;11.016;2022-12-29T01:21:45;97852.94;;;5.83;64.99
21300;BME280;10809;49.476;11.016;2022-12-29T01:24:18;97858.13;;;5.84;65.24
21300;BME280;10809;49.476;11.016;2022-12-29T01:26:50;97857.16;;;5.87;64.92
21300;BME280;10809;49.476;11.016;2022-12-29T01:29:21;97847.50;;;5.87;65.02
21300;BME280;10809;49.476;11.016;2022-12-29T01:31:51;97845.66;;;5.89;65.04
21300;BME280;10809;49.476;11.016;2022-12-29T01:34:22;97837.72;;;5.91;65.00
21300;BME280;10809;49.476;11.016;2022-12-29T01:36:52;97844.66;;;5.92;64.69
21300;BME280;10809;49.476;11.016;2022-12-29T01:39:23;97835.88;;;5.93;64.84
21300;BME280;10809;49.476;11.016;2022-12-29T01:41:53;97841.97;;;5.93;65.08
21300;BME280;10809;49.476;11.016;2022-12-29T01:47:28;97823.50;;;5.95;65.31
21300;BME280;10809;49.476;11.016;2022-12-29T01:50:09;97818.19;;;5.96;64.71
21300;BME280;10809;49.476;11.016;2022-12-29T01:52:44;97826.00;;;5.98;64.90
21300;BME280;10809;49.476;11.016;2022-12-29T01:55:19;97830.34;;;5.99;64.92
21300;BME280;10809;49.476;11.016;2022-12-29T01:57:51;97818.03;;;5.99;64.80
21300;BME280;10809;49.476;11.016;2022-12-29T02:00:22;97828.47;;;6.01;64.67
21300;BME280;10809;49.476;11.016;2022-12-29T02:02:54;97817.97;;;6.01;64.81
21300;BME280;10809;49.476;11.016;2022-12-29T02:05:34;97815.28;;;6.02;64.81
21300;BME280;10809;49.476;11.016;2022-12-29T02:08:06;97810.81;;;6.04;64.85
21300;BME280;10809;49.476;11.016;2022-12-29T02:10:40;97812.50;;;6.05;64.90
21300;BME280;10809;49.476;11.016;2022-12-29T02:13:15;97802.84;;;6.06;64.85
21300;BME280;10809;49.476;11.016;2022-12-29T02:21:47;97798.25;;;6.11;64.83
21300;BME280;10809;49.476;11.016;2022-12-29T02:32:52;97789.28;;;6.15;65.11
21300;BME280;10809;49.476;11.016;2022-12-29T02:35:37;97798.81;;;6.18;64.80
21300;BME280;10809;49.476;11.016;2022-12-29T02:41:00;97807.47;;;6.20;64.52
21300;BME280;10809;49.476;11.016;2022-12-29T02:43:49;97791.72;;;6.20;64.85
21300;BME280;10809;49.476;11.016;2022-12-29T02:46:34;97801.22;;;6.22;64.72
21300;BME280;10809;49.476;11.016;2022-12-29T02:49:22;97797.69;;;6.23;64.65
21300;BME280;10809;49.476;11.016;2022-12-29T02:52:06;97798.47;;;6.25;64.83
21300;BME280;10809;49.476;11.016;2022-12-29T02:54:38;97801.94;;;6.26;64.49
21300;BME280;10809;49.476;11.016;2022-12-29T03:00:09;97793.16;;;6.27;64.46
21300;BME280;10809;49.476;11.016;2022-12-29T03:05:37;97794.84;;;6.28;64.51
21300;BME280;10809;49.476;11.016;2022-12-29T03:08:34;97790.53;;;6.27;64.45
21300;BME280;10809;49.476;11.016;2022-12-29T03:11:11;97786.03;;;6.29;64.35
21300;BME280;10809;49.476;11.016;2022-12-29T03:14:09;97791.28;;;6.29;64.72
21300;BME280;10809;49.476;11.016;2022-12-29T03:17:14;97789.59;;;6.28;64.53
21300;BME280;10809;49.476;11.016;2022-12-29T03:19:51;97780.75;;;6.29;64.67
21300;BME280;10809;49.476;11.016;2022-12-29T03:22:26;97785.19;;;6.28;64.47
21300;BME280;10809;49.476;11.016;2022-12-29T03:27:45;97777.31;;;6.28;64.62
21300;BME280;10809;49.476;11.016;2022-12-29T03:30:17;97772.06;;;6.28;64.71
21300;BME280;10809;49.476;11.016;2022-12-29T03:32:50;97776.38;;;6.29;64.55
21300;BME280;10809;49.476;11.016;2022-12-29T03:35:25;97777.16;;;6.31;64.70
21300;BME280;10809;49.476;11.016;2022-12-29T03:38:05;97770.19;;;6.30;64.65
21300;BME280;10809;49.476;11.016;2022-12-29T03:40:42;97767.47;;;6.32;64.88
21300;BME280;10809;49.476;11.016;2022-12-29T03:43:15;97764.84;;;6.32;64.56
21300;BME280;10809;49.476;11.016;2022-12-29T03:45:46;97763.88;;;6.34;64.47
21300;BME280;10809;49.476;11.016;2022-12-29T03:48:16;97763.00;;;6.34;64.55
21300;BME280;10809;49.476;11.016;2022-12-29T03:50:48;97759.44;;;6.35;64.42
21300;BME280;10809;49.476;11.016;2022-12-29T03:53:19;97769.97;;;6.35;64.52
21300;BME280;10809;49.476;11.016;2022-12-29T03:55:50;97767.25;;;6.36;64.75
21300;BME280;10809;49.476;11.016;2022-12-29T03:58:20;97766.34;;;6.37;64.38
21300;BME280;10809;49.476;11.016;2022-12-29T04:01:11;97768.91;;;6.39;64.47
21300;BME280;10809;49.476;11.016;2022-12-29T04:03:42;97770.59;;;6.40;64.47
21300;BME280;10809;49.476;11.016;2022-12-29T04:06:14;97769.66;;;6.41;64.42
21300;BME280;10809;49.476;11.016;2022-12-29T04:08:52;97768.75;;;6.42;64.37
21300;BME280;10809;49.476;11.016;2022-12-29T04:11:23;97764.34;;;6.42;64.31
21300;BME280;10809;49.476;11.016;2022-12-29T04:13:54;97766.97;;;6.42;64.29
21300;BME280;10809;49.476;11.016;2022-12-29T04:16:28;97765.19;;;6.43;64.16
21300;BME280;10809;49.476;11.016;2022-12-29T04:18:58;97766.97;;;6.42;64.37
21300;BME280;10809;49.476;11.016;2022-12-29T04:21:29;97773.94;;;6.43;64.13
21300;BME280;10809;49.476;11.016;2022-12-29T04:24:02;97778.34;;;6.43;64.38
21300;BME280;10809;49.476;11.016;2022-12-29T04:26:36;97778.41;;;6.41;63.97
21300;BME280;10809;49.476;11.016;2022-12-29T04:29:31;97772.31;;;6.41;64.19
21300;BME280;10809;49.476;11.016;2022-12-29T04:32:07;97779.34;;;6.40;64.26
21300;BME280;10809;49.476;11.016;2022-12-29T04:34:41;97782.06;;;6.39;64.33
21300;BME280;10809;49.476;11.016;2022-12-29T04:37:12;97775.06;;;6.38;63.89
21300;BME280;10809;49.476;11.016;2022-12-29T04:39:43;97766.34;;;6.37;64.03
21300;BME280;10809;49.476;11.016;2022-12-29T04:42:13;97766.34;;;6.37;64.23
21300;BME280;10809;49.476;11.016;2022-12-29T04:44:44;97762.88;;;6.37;63.84
21300;BME280;10809;49.476;11.016;2022-12-29T04:47:18;97762.88;;;6.37;64.13
21300;BME280;10809;49.476;11.016;2022-12-29T04:49:56;97764.56;;;6.38;63.86
21300;BME280;10809;49.476;11.016;2022-12-29T04:52:47;97765.50;;;6.37;63.84
21300;BME280;10809;49.476;11.016;2022-12-29T04:55:18;97764.63;;;6.36;63.98
21300;BME280;10809;49.476;11.016;2022-12-29T04:57:48;97762.00;;;6.36;63.87
21300;BME280;10809;49.476;11.016;2022-12-29T05:00:22;97764.63;;;6.36;63.67
21300;BME280;10809;49.476;11.016;2022-12-29T05:02:53;97755.03;;;6.35;63.80
21300;BME280;10809;49.476;11.016;2022-12-29T05:05:23;97762.06;;;6.35;63.64
21300;BME280;10809;49.476;11.016;2022-12-29T05:07:55;97765.72;;;6.32;63.31
21300;BME280;10809;49.476;11.016;2022-12-29T05:10:25;97773.66;;;6.31;63.50
21300;BME280;10809;49.476;11.016;2022-12-29T05:12:57;97772.06;;;6.28;63.20
21300;BME280;10809;49.476;11.016;2022-12-29T05:15:28;97776.44;;;6.28;63.46
21300;BME280;10809;49.476;11.016;2022-12-29T05:17:59;97782.63;;;6.27;63.57
21300;BME280;10809;49.476;11.016;2022-12-29T05:20:30;97784.41;;;6.26;63.66
21300;BME280;10809;49.476;11.016;2022-12-29T05:23:01;97773.88;;;6.26;63.52
21300;BME280;10809;49.476;11.016;2022-12-29T05:25:32;97765.13;;;6.26;63.78
21300;BME280;10809;49.476;11.016;2022-12-29T05:28:21;97770.31;;;6.27;63.52
21300;BME280;10809;49.476;11.016;2022-12-29T05:30:53;97779.16;;;6.26;63.55
21300;BME280;10809;49.476;11.016;2022-12-29T05:33:23;97761.59;;;6.27;63.18
21300;BME280;10809;49.476;11.016;2022-12-29T05:35:55;97759.88;;;6.26;63.54
21300;BME280;10809;49.476;11.016;2022-12-29T05:38:27;97758.19;;;6.25;63.24
21300;BME280;10809;49.476;11.016;2022-12-29T05:40:58;97753.00;;;6.23;63.29
21300;BME280;10809;49.476;11.016;2022-12-29T05:43:47;97752.22;;;6.21;63.36
21300;BME280;10809;49.476;11.016;2022-12-29T05:46:36;97750.59;;;6.19;63.16
21300;BME280;10809;49.476;11.016;2022-12-29T05:49:32;97743.69;;;6.16;63.16
21300;BME280;10809;49.476;11.016;2022-12-29T05:52:11;97759.59;;;6.13;63.04
21300;BME280;10809;49.476;11.016;2022-12-29T05:54:42;97759.75;;;6.10;63.32
21300;BME280;10809;49.476;11.016;2022-12-29T05:57:16;97776.50;;;6.07;63.35
21300;BME280;10809;49.476;11.016;2022-12-29T05:59:50;97780.28;;;6.02;63.08
21300;BME280;10809;49.476;11.016;2022-12-29T06:02:21;97768.06;;;6.01;63.20
21300;BME280;10809;49.476;11.016;2022-12-29T06:04:52;97777.78;;;5.99;63.21
21300;BME280;10809;49.476;11.016;2022-12-29T06:07:22;97761.31;;;5.95;63.11
21300;BME280;10809;49.476;11.016;2022-12-29T06:09:53;97760.59;;;5.92;63.11
21300;BME280;10809;49.476;11.016;2022-12-29T06:12:24;97755.47;;;5.89;63.13
21300;BME280;10809;49.476;11.016;2022-12-29T06:14:57;97766.13;;;5.86;63.28
21300;BME280;10809;49.476;11.016;2022-12-29T06:17:27;97755.75;;;5.83;63.19
21300;BME280;10809;49.476;11.016;2022-12-29T06:19:59;97761.16;;;5.80;63.33
21300;BME280;10809;49.476;11.016;2022-12-29T06:22:29;97762.16;;;5.77;63.35
21300;BME280;10809;49.476;11.016;2022-12-29T06:25:00;97756.97;;;5.76;63.53
21300;BME280;10809;49.476;11.016;2022-12-29T06:27:32;97754.47;;;5.73;63.45
21300;BME280;10809;49.476;11.016;2022-12-29T06:30:03;97758.00;;;5.72;63.28
21300;BME280;10809;49.476;11.016;2022-12-29T06:32:33;97752.91;;;5.69;63.79
21300;BME280;10809;49.476;11.016;2022-12-29T06:35:08;97753.03;;;5.66;63.46
21300;BME280;10809;49.476;11.016;2022-12-29T06:37:44;97755.72;;;5.64;63.53
21300;BME280;10809;49.476;11.016;2022-12-29T06:40:15;97754.03;;;5.63;63.62
21300;BME280;10809;49.476;11.016;2022-12-29T06:43:05;97766.22;;;5.64;63.50
21300;BME280;10809;49.476;11.016;2022-12-29T06:46:14;97783.78;;;5.64;63.57
21300;BME280;10809;49.476;11.016;2022-12-29T06:48:45;97774.19;;;5.63;63.55
21300;BME280;10809;49.476;11.016;2022-12-29T06:51:15;97785.59;;;5.62;63.56
21300;BME280;10809;49.476;11.016;2022-12-29T06:53:46;97790.00;;;5.61;63.52
21300;BME280;10809;49.476;11.016;2022-12-29T06:56:18;97774.25;;;5.61;63.15
21300;BME280;10809;49.476;11.016;2022-12-29T06:58:49;97776.88;;;5.61;63.62
21300;BME280;10809;49.476;11.016;2022-12-29T07:01:21;97754.16;;;5.60;63.41
21300;BME280;10809;49.476;11.016;2022-12-29T07:03:52;97763.88;;;5.58;63.46
21300;BME280;10809;49.476;11.016;2022-12-29T07:06:23;97770.00;;;5.59;63.69
21300;BME280;10809;49.476;11.016;2022-12-29T07:08:54;97759.50;;;5.59;63.35
21300;BME280;10809;49.476;11.016;2022-12-29T07:11:27;97768.31;;;5.58;63.59
21300;BME280;10809;49.476;11.016;2022-12-29T07:13:58;97766.56;;;5.57;63.63
21300;BME280;10809;49.476;11.016;2022-12-29T07:16:29;97763.94;;;5.57;63.39
21300;BME280;10809;49.476;11.016;2022-12-29T07:19:01;97779.69;;;5.57;63.46
21300;BME280;10809;49.476;11.016;2022-12-29T07:21:32;97783.19;;;5.57;63.59
21300;BME280;10809;49.476;11.016;2022-12-29T07:24:04;97787.56;;;5.57;63.89
21300;BME280;10809;49.476;11.016;2022-12-29T07:26:35;97791.06;;;5.57;63.37
21300;BME280;10809;49.476;11.016;2022-12-29T07:29:06;97796.25;;;5.59;63.50
21300;BME280;10809;49.476;11.016;2022-12-29T07:31:38;97799.66;;;5.61;63.72
21300;BME280;10809;49.476;11.016;2022-12-29T07:34:09;97804.84;;;5.62;63.69
21300;BME280;10809;49.476;11.016;2022-12-29T07:36:41;97790.72;;;5.65;63.81
21300;BME280;10809;49.476;11.016;2022-12-29T07:39:12;97789.66;;;5.69;63.70
21300;BME280;10809;49.476;11.016;2022-12-29T07:41:43;97794.75;;;5.73;63.78
21300;BME280;10809;49.476;11.016;2022-12-29T07:44:21;97798.00;;;5.78;63.71
21300;BME280;10809;49.476;11.016;2022-12-29T07:47:24;97803.03;;;5.83;63.68
21300;BME280;10809;49.476;11.016;2022-12-29T07:49:56;97802.00;;;5.87;63.66
21300;BME280;10809;49.476;11.016;2022-12-29T07:52:28;97799.25;;;5.90;63.48
21300;BME280;10809;49.476;11.016;2022-12-29T07:54:59;97799.84;;;5.95;63.71
21300;BME280;10809;49.476;11.016;2022-12-29T07:57:30;97804.06;;;5.99;63.49
21300;BME280;10809;49.476;11.016;2022-12-29T08:00:01;97805.63;;;6.03;63.40
21300;BME280;10809;49.476;11.016;2022-12-29T08:02:42;97796.75;;;6.05;63.41
21300;BME280;10809;49.476;11.016;2022-12-29T08:05:14;97792.22;;;6.09;63.36
21300;BME280;10809;49.476;11.016;2022-12-29T08:07:46;97788.56;;;6.12;63.57
21300;BME280;10809;49.476;11.016;2022-12-29T08:10:17;97791.06;;;6.15;63.55
21300;BME280;10809;49.476;11.016;2022-12-29T08:12:48;97799.66;;;6.18;63.02
21300;BME280;10809;49.476;11.016;2022-12-29T08:15:20;97794.25;;;6.21;63.05
21300;BME280;10809;49.476;11.016;2022-12-29T08:17:51;97795.84;;;6.25;63.26
21300;BME280;10809;49.476;11.016;2022-12-29T08:20:21;97786.88;;;6.29;63.07
21300;BME280;10809;49.476;11.016;2022-12-29T08:22:52;97806.00;;;6.33;63.29
21300;BME280;10809;49.476;11.016;2022-12-29T08:25:27;97798.81;;;6.36;63.05
21300;BME280;10809;49.476;11.016;2022-12-29T08:27:58;97788.16;;;6.39;63.15
21300;BME280;10809;49.476;11.016;2022-12-29T08:30:29;97795.81;;;6.44;63.15
21300;BME280;10809;49.476;11.016;2022-12-29T08:33:00;97790.34;;;6.48;63.32
21300;BME280;10809;49.476;11.016;2022-12-29T08:35:30;97803.28;;;6.53;62.99
21300;BME280;10809;49.476;11.016;2022-12-29T08:38:01;97807.47;;;6.57;63.22
21300;BME280;10809;49.476;11.016;2022-12-29T08:40:32;97809.03;;;6.61;63.16
21300;BME280;10809;49.476;11.016;2022-12-29T08:43:04;97803.53;;;6.65;63.03
21300;BME280;10809;49.476;11.016;2022-12-29T08:45:35;97804.19;;;6.70;62.92
21300;BME280;10809;49.476;11.016;2022-12-29T08:48:06;97813.63;;;6.74;63.25
21300;BME280;10809;49.476;11.016;2022-12-29T08:50:36;97811.56;;;6.81;63.15
21300;BME280;10809;49.476;11.016;2022-12-29T08:53:07;97806.06;;;6.85;63.23
21300;BME280;10809;49.476;11.016;2022-12-29T08:55:38;97799.66;;;6.91;63.10
21300;BME280;10809;49.476;11.016;2022-12-29T08:58:08;97799.41;;;6.95;62.85
21300;BME280;10809;49.476;11.016;2022-12-29T09:00:42;97800.84;;;7.02;62.72
21300;BME280;10809;49.476;11.016;2022-12-29T09:03:15;97804.09;;;7.07;62.77
21300;BME280;10809;49.476;11.016;2022-12-29T09:05:50;97808.22;;;7.13;62.94
21300;BME280;10809;49.476;11.016;2022-12-29T09:08:22;97803.56;;;7.18;62.68
21300;BME280;10809;49.476;11.016;2022-12-29T09:10:53;97803.34;;;7.22;62.78
21300;BME280;10809;49.476;11.016;2022-12-29T09:13:23;97797.78;;;7.28;63.05
21300;BME280;10809;49.476;11.016;2022-12-29T09:15:58;97801.03;;;7.33;62.95
21300;BME280;10809;49.476;11.016;2022-12-29T09:18:30;97801.56;;;7.40;62.99
21300;BME280;10809;49.476;11.016;2022-12-29T09:21:04;97794.22;;;7.46;62.97
21300;BME280;10809;49.476;11.016;2022-12-29T09:23:36;97808.69;;;7.55;62.94
21300;BME280;10809;49.476;11.016;2022-12-29T09:26:08;97814.34;;;7.64;62.99
21300;BME280;10809;49.476;11.016;2022-12-29T09:28:40;97816.50;;;7.73;63.09
21300;BME280;10809;49.476;11.016;2022-12-29T09:31:11;97816.03;;;7.82;62.92
21300;BME280;10809;49.476;11.016;2022-12-29T09:33:43;97813.84;;;7.91;62.88
21300;BME280;10809;49.476;11.016;2022-12-29T09:36:16;97814.19;;;8.00;62.65
21300;BME280;10809;49.476;11.016;2022-12-29T09:38:47;97810.31;;;8.07;62.54
21300;BME280;10809;49.476;11.016;2022-12-29T09:41:25;97810.81;;;8.14;62.26
21300;BME280;10809;49.476;11.016;2022-12-29T09:44:08;97805.19;;;8.20;62.53
21300;BME280;10809;49.476;11.016;2022-12-29T09:46:49;97803.19;;;8.25;62.20
21300;BME280;10809;49.476;11.016;2022-12-29T09:51:55;97807.88;;;8.35;62.17
21300;BME280;10809;49.476;11.016;2022-12-29T09:54:54;97805.91;;;8.39;62.29
21300;BME280;10809;49.476;11.016;2022-12-29T09:57:36;97800.38;;;8.43;61.96
21300;BME280;10809;49.476;11.016;2022-12-29T10:00:36;97797.59;;;8.46;62.03
21300;BME280;10809;49.476;11.016;2022-12-29T10:03:16;97791.28;;;8.49;62.02
21300;BME280;10809;49.476;11.016;2022-12-29T10:06:00;97801.66;;;8.52;61.55
21300;BME280;10809;49.476;11.016;2022-12-29T10:09:02;97790.09;;;8.54;62.02
21300;BME280;10809;49.476;11.016;2022-12-29T10:17:34;97787.22;;;8.59;61.46
21300;BME280;10809;49.476;11.016;2022-12-29T10:20:19;97786.19;;;8.61;61.33
21300;BME280;10809;49.476;11.016;2022-12-29T10:25:37;97788.75;;;8.63;61.47
21300;BME280;10809;49.476;11.016;2022-12-29T10:28:33;97780.75;;;8.64;61.37
21300;BME280;10809;49.476;11.016;2022-12-29T10:31:16;97777.09;;;8.67;61.80
21300;BME280;10809;49.476;11.016;2022-12-29T10:33:58;97770.03;;;8.67;61.62
21300;BME280;10809;49.476;11.016;2022-12-29T10:36:41;97766.34;;;8.70;61.89
21300;BME280;10809;49.476;11.016;2022-12-29T10:42:20;97757.09;;;8.78;61.86
21300;BME280;10809;49.476;11.016;2022-12-29T10:44:53;97755.88;;;8.84;61.47
21300;BME280;10809;49.476;11.016;2022-12-29T10:47:28;97741.50;;;8.89;61.33
21300;BME280;10809;49.476;11.016;2022-12-29T10:50:01;97737.63;;;8.95;61.33
21300;BME280;10809;49.476;11.016;2022-12-29T10:52:33;97743.41;;;9.01;61.08
21300;BME280;10809;49.476;11.016;2022-12-29T10:55:16;97737.78;;;9.07;61.35
21300;BME280;10809;49.476;11.016;2022-12-29T10:57:49;97734.88;;;9.12;61.30
21300;BME280;10809;49.476;11.016;2022-12-29T11:00:23;97737.13;;;9.18;61.19
21300;BME280;10809;49.476;11.016;2022-12-29T11:05:54;97724.88;;;9.31;61.12
21300;BME280;10809;49.476;11.016;2022-12-29T11:08:38;97726.34;;;9.36;61.20
21300;BME280;10809;49.476;11.016;2022-12-29T11:11:11;97731.34;;;9.41;60.51
21300;BME280;10809;49.476;11.016;2022-12-29T11:13:51;97723.13;;;9.45;61.00
21300;BME280;10809;49.476;11.016;2022-12-29T11:16:32;97721.16;;;9.49;60.56
21300;BME280;10809;49.476;11.016;2022-12-29T11:19:04;97728.88;;;9.52;60.70
21300;BME280;10809;49.476;11.016;2022-12-29T11:21:38;97738.25;;;9.57;60.30
21300;BME280;10809;49.476;11.016;2022-12-29T11:24:23;97730.88;;;9.63;60.62
21300;BME280;10809;49.476;11.016;2022-12-29T11:26:56;97730.59;;;9.67;60.26
21300;BME280;10809;49.476;11.016;2022-12-29T11:29:40;97736.44;;;9.72;60.38
21300;BME280;10809;49.476;11.016;2022-12-29T11:32:22;97737.94;;;9.76;59.82
21300;BME280;10809;49.476;11.016;2022-12-29T11:34:53;97737.66;;;9.81;59.84
21300;BME280;10809;49.476;11.016;2022-12-29T11:37:36;97734.78;;;9.85;60.21
21300;BME280;10809;49.476;11.016;2022-12-29T11:40:19;97730.22;;;9.87;60.15
21300;BME280;10809;49.476;11.016;2022-12-29T11:42:56;97739.69;;;9.91;60.10
21300;BME280;10809;49.476;11.016;2022-12-29T11:45:36;97734.22;;;9.94;60.14
21300;BME280;10809;49.476;11.016;2022-12-29T11:48:14;97739.41;;;9.96;59.74
21300;BME280;10809;49.476;11.016;2022-12-29T11:50:57;97733.91;;;9.99;60.26
21300;BME280;10809;49.476;11.016;2022-12-29T11:53:43;97739.97;;;10.01;60.40
21300;BME280;10809;49.476;11.016;2022-12-29T11:59:34;97734.41;;;10.05;60.25
21300;BME280;10809;49.476;11.016;2022-12-29T12:05:13;97731.47;;;10.10;60.17
21300;BME280;10809;49.476;11.016;2022-12-29T12:10:42;97728.72;;;10.11;59.85
21300;BME280;10809;49.476;11.016;2022-12-29T12:13:25;97724.19;;;10.13;60.38
21300;BME280;10809;49.476;11.016;2022-12-29T12:16:14;97728.53;;;10.14;60.32
21300;BME280;10809;49.476;11.016;2022-12-29T12:27:44;97729.75;;;10.23;60.02
21300;BME280;10809;49.476;11.016;2022-12-29T12:30:21;97728.81;;;10.24;60.10
21300;BME280;10809;49.476;11.016;2022-12-29T12:39:02;97733.91;;;10.27;60.10
21300;BME280;10809;49.476;11.016;2022-12-29T12:41:52;97734.75;;;10.27;60.03
21300;BME280;10809;49.476;11.016;2022-12-29T12:47:35;97748.09;;;10.26;59.98
21300;BME280;10809;49.476;11.016;2022-12-29T12:53:12;97737.59;;;10.24;60.30
21300;BME280;10809;49.476;11.016;2022-12-29T12:55:58;97724.56;;;10.21;60.29
21300;BME280;10809;49.476;11.016;2022-12-29T12:58:59;97733.44;;;10.20;60.21
21300;BME280;10809;49.476;11.016;2022-12-29T13:01:43;97722.94;;;10.19;60.39
21300;BME280;10809;49.476;11.016;2022-12-29T13:04:48;97733.63;;;10.17;60.53
21300;BME280;10809;49.476;11.016;2022-12-29T13:07:39;97729.28;;;10.16;60.64
21300;BME280;10809;49.476;11.016;2022-12-29T13:14:33;97735.63;;;10.14;60.44
21300;BME280;10809;49.476;11.016;2022-12-29T13:19:36;97737.50;;;10.12;60.61
21300;BME280;10809;49.476;11.016;2022-12-29T13:22:37;97740.25;;;10.10;60.76
21300;BME280;10809;49.476;11.016;2022-12-29T13:25:31;97741.94;;;10.11;60.62
21300;BME280;10809;49.476;11.016;2022-12-29T13:36:23;97748.38;;;10.07;60.83
21300;BME280;10809;49.476;11.016;2022-12-29T13:39:08;97751.22;;;10.04;60.60
21300;BME280;10809;49.476;11.016;2022-12-29T13:41:48;97746.78;;;10.05;60.52
21300;BME280;10809;49.476;11.016;2022-12-29T13:44:44;97739.88;;;10.02;60.69
21300;BME280;10809;49.476;11.016;2022-12-29T13:47:33;97736.41;;;10.02;60.56
21300;BME280;10809;49.476;11.016;2022-12-29T13:50:19;97741.69;;;10.02;60.86
21300;BME280;10809;49.476;11.016;2022-12-29T13:53:15;97746.13;;;10.01;60.57
21300;BME280;10809;49.476;11.016;2022-12-29T13:56:20;97754.06;;;10.01;60.54
21300;BME280;10809;49.476;11.016;2022-12-29T13:59:03;97755.00;;;10.00;60.47
21300;BME280;10809;49.476;11.016;2022-12-29T14:01:43;97748.75;;;10.01;60.75
21300;BME280;10809;49.476;11.016;2022-12-29T14:04:26;97763.00;;;9.99;60.59
21300;BME280;10809;49.476;11.016;2022-12-29T14:07:02;97755.16;;;9.97;60.47
21300;BME280;10809;49.476;11.016;2022-12-29T14:09:54;97757.91;;;9.96;60.47
21300;BME280;10809;49.476;11.016;2022-12-29T14:12:30;97750.06;;;9.94;60.27
21300;BME280;10809;49.476;11.016;2022-12-29T14:15:22;97758.09;;;9.93;60.81
21300;BME280;10809;49.476;11.016;2022-12-29T14:20:59;97750.34;;;9.90;60.43
21300;BME280;10809;49.476;11.016;2022-12-29T14:28:45;97748.81;;;9.86;60.70
21300;BME280;10809;49.476;11.016;2022-12-29T14:36:37;97753.28;;;9.85;60.90
21300;BME280;10809;49.476;11.016;2022-12-29T14:42:05;97742.88;;;9.82;61.10
21300;BME280;10809;49.476;11.016;2022-12-29T14:45:06;97743.81;;;9.81;60.77
21300;BME280;10809;49.476;11.016;2022-12-29T14:47:45;97744.78;;;9.80;61.17
21300;BME280;10809;49.476;11.016;2022-12-29T14:50:25;97752.81;;;9.79;60.92
21300;BME280;10809;49.476;11.016;2022-12-29T14:53:04;97754.69;;;9.77;60.87
21300;BME280;10809;49.476;11.016;2022-12-29T14:55:41;97758.28;;;9.76;61.29
21300;BME280;10809;49.476;11.016;2022-12-29T14:58:19;97752.13;;;9.75;61.18
21300;BME280;10809;49.476;11.016;2022-12-29T15:00:50;97761.00;;;9.74;61.02
21300;BME280;10809;49.476;11.016;2022-12-29T15:05:56;97758.56;;;9.71;61.23
21300;BME280;10809;49.476;11.016;2022-12-29T15:08:32;97761.19;;;9.71;61.36
21300;BME280;10809;49.476;11.016;2022-12-29T15:11:13;97763.94;;;9.70;61.16
21300;BME280;10809;49.476;11.016;2022-12-29T15:13:44;97770.91;;;9.71;61.22
21300;BME280;10809;49.476;11.016;2022-12-29T15:16:25;97763.06;;;9.69;61.18
21300;BME280;10809;49.476;11.016;2022-12-29T15:18:56;97767.50;;;9.69;61.40
21300;BME280;10809;49.476;11.016;2022-12-29T15:21:29;97766.69;;;9.68;61.45
21300;BME280;10809;49.476;11.016;2022-12-29T15:24:00;97769.41;;;9.67;61.40
21300;BME280;10809;49.476;11.016;2022-12-29T15:26:42;97765.03;;;9.66;61.54
21300;BME280;10809;49.476;11.016;2022-12-29T15:29:36;97767.78;;;9.64;61.36
21300;BME280;10809;49.476;11.016;2022-12-29T15:32:22;97762.50;;;9.64;61.28
21300;BME280;10809;49.476;11.016;2022-12-29T15:34:57;97767.03;;;9.62;61.52
21300;BME280;10809;49.476;11.016;2022-12-29T15:37:34;97768.91;;;9.60;61.59
21300;BME280;10809;49.476;11.016;2022-12-29T15:40:21;97762.78;;;9.59;61.61
21300;BME280;10809;49.476;11.016;2022-12-29T15:43:14;97776.09;;;9.58;61.46